Time;durP1;ratioP1;P1;durP2;ratioP2;P2;SDS_P1;SDS_P2;PMS_P1;PMS_P2;Temp;Humidity;BMP_temperature;BMP_pressure;BME280_temperature;BME280_humidity;BME280_pressure;Samples;Min_cycle;Max_cycle;Signal;HPM_P1;HPM_P2
2022/07/27 04:06:36;;;;;;;;;35.25;34.50;;;;;;;;6284914;46;10008204;-59
2022/07/27 04:12:39;;;;;;;;;39.33;35.33;;;;;;;;6490621;31;8913;-60
2022/07/27 04:18:42;;;;;;;;;31.75;31.50;;;;;;;;6490630;31;8898;-60
2022/07/27 04:24:45;;;;;;;;;39.67;36.00;;;;;;;;6491378;39;8906;-60
2022/07/27 04:30:48;;;;;;;;;43.67;38.00;;;;;;;;6490405;39;8879;-60
2022/07/27 04:36:52;;;;;;;;;41.00;35.50;;;;;;;;6488245;46;8970;-60
2022/07/27 04:42:54;;;;;;;;;42.25;33.25;;;;;;;;6490572;31;8907;-59
2022/07/27 04:48:56;;;;;;;;;40.50;36.50;;;;;;;;6490533;39;8951;-59
2022/07/27 04:54:59;;;;;;;;;43.00;37.33;;;;;;;;6490797;39;8878;-60
2022/07/27 05:01:02;;;;;;;;;43.50;37.00;;;;;;;;6490459;46;8853;-59
2022/07/27 05:07:04;;;;;;;;;43.33;38.33;;;;;;;;6492017;31;8889;-60
2022/07/27 05:13:12;;;;;;;;;38.25;35.25;;;;;;;;6490257;46;8825;-60
2022/07/27 05:19:14;;;;;;;;;42.33;36.67;;;;;;;;6490479;31;8905;-59
2022/07/27 05:25:17;;;;;;;;;44.33;38.67;;;;;;;;6490105;46;8945;-59
2022/07/27 05:31:19;;;;;;;;;48.00;40.75;;;;;;;;6490659;31;9615;-58
2022/07/27 05:37:22;;;;;;;;;43.75;38.75;;;;;;;;6490515;31;8870;-58
2022/07/27 05:43:24;;;;;;;;;48.50;41.50;;;;;;;;6488742;47;8963;-59
2022/07/27 05:49:26;;;;;;;;;42.50;35.50;;;;;;;;6489780;39;8860;-58
2022/07/27 05:55:32;;;;;;;;;46.25;39.00;;;;;;;;6487239;39;8985;-57
2022/07/27 06:01:34;;;;;;;;;44.25;39.50;;;;;;;;6485632;31;8961;-61
2022/07/27 06:13:58;;;;;;;;;42.50;37.75;;;;;;;;6489657;39;9028;-60
2022/07/27 06:20:03;;;;;;;;;39.00;35.50;;;;;;;;6489626;31;8939;-59
2022/07/27 06:26:05;;;;;;;;;36.75;34.75;;;;;;;;6490297;39;9069;-58
2022/07/27 06:32:07;;;;;;;;;40.33;37.33;;;;;;;;6489004;39;8920;-58
2022/07/27 06:38:11;;;;;;;;;57.00;46.67;;;;;;;;6486247;31;9106;-58
2022/07/27 06:44:13;;;;;;;;;40.50;38.00;;;;;;;;6488548;31;9010;-59
2022/07/27 06:50:19;;;;;;;;;47.25;40.00;;;;;;;;6483005;31;8900;-59
2022/07/27 06:56:22;;;;;;;;;48.75;41.50;;;;;;;;6485635;46;9101;-58
2022/07/27 07:02:26;;;;;;;;;42.00;38.75;;;;;;;;6483057;31;9034;-60
2022/07/27 07:08:29;;;;;;;;;39.00;37.25;;;;;;;;6485334;39;9025;-60
2022/07/27 07:14:34;;;;;;;;;38.75;34.25;;;;;;;;6483777;39;9550;-58
2022/07/27 07:20:38;;;;;;;;;32.00;31.75;;;;;;;;6484876;39;9096;-59
2022/07/27 07:26:40;;;;;;;;;34.50;33.75;;;;;;;;6482893;39;8915;-58
2022/07/27 07:32:42;;;;;;;;;37.50;32.25;;;;;;;;6484054;39;8963;-58
2022/07/27 07:38:45;;;;;;;;;45.75;38.75;;;;;;;;6487190;31;8901;-58
2022/07/27 07:44:51;;;;;;;;;56.50;46.00;;;;;;;;6483576;39;8960;-58
2022/07/27 07:50:53;;;;;;;;;39.00;35.25;;;;;;;;6485374;46;8911;-58
2022/07/27 07:56:58;;;;;;;;;35.25;34.25;;;;;;;;6485139;39;8951;-59
2022/07/27 08:03:00;;;;;;;;;36.25;34.75;;;;;;;;6485396;46;9024;-58
2022/07/27 08:09:03;;;;;;;;;36.50;34.00;;;;;;;;6487114;39;8935;-58
2022/07/27 08:15:07;;;;;;;;;35.75;33.00;;;;;;;;6486784;46;8947;-57
2022/07/27 08:21:09;;;;;;;;;37.25;35.75;;;;;;;;6481238;46;8971;-58
2022/07/27 08:27:11;;;;;;;;;40.00;35.50;;;;;;;;6483145;39;8912;-58
2022/07/27 08:33:14;;;;;;;;;37.25;32.25;;;;;;;;6482435;39;8892;-57
2022/07/27 08:39:17;;;;;;;;;36.50;35.75;;;;;;;;6484912;39;8909;-58
2022/07/27 08:45:40;;;;;;;;;34.00;32.75;;;;;;;;6486647;46;9108;-57
2022/07/27 08:51:43;;;;;;;;;37.75;34.25;;;;;;;;6484739;39;8976;-59
2022/07/27 08:57:51;;;;;;;;;38.75;35.00;;;;;;;;6485001;39;8984;-58
2022/07/27 09:03:53;;;;;;;;;31.75;29.75;;;;;;;;6485235;31;8992;-59
2022/07/27 09:09:55;;;;;;;;;27.00;25.50;;;;;;;;6485357;46;8901;-59
2022/07/27 09:16:06;;;;;;;;;31.00;25.75;;;;;;;;6484750;39;8952;-59
2022/07/27 09:22:43;;;;;;;;;31.50;30.25;;;;;;;;6482079;39;8935;-58
2022/07/27 09:28:52;;;;;;;;;28.00;26.00;;;;;;;;6476046;31;8917;-59
2022/07/27 09:34:55;;;;;;;;;33.50;31.75;;;;;;;;6483327;31;8914;-59
2022/07/27 09:41:00;;;;;;;;;30.50;26.75;;;;;;;;6485639;39;8976;-57
2022/07/27 09:47:26;;;;;;;;;32.75;31.25;;;;;;;;6487870;31;9018;-59
2022/07/27 09:53:33;;;;;;;;;30.25;29.25;;;;;;;;6484729;39;8975;-60
2022/07/27 09:59:45;;;;;;;;;30.75;30.75;;;;;;;;6484462;39;8935;-57
2022/07/27 10:05:48;;;;;;;;;36.50;33.50;;;;;;;;6484979;31;8981;-57
2022/07/27 10:11:51;;;;;;;;;25.75;23.50;;;;;;;;6485379;31;9018;-59
2022/07/27 10:18:06;;;;;;;;;23.50;23.50;;;;;;;;6484336;31;9016;-59
2022/07/27 10:24:12;;;;;;;;;23.75;23.25;;;;;;;;6484171;46;8905;-58
2022/07/27 10:30:18;;;;;;;;;24.75;22.75;;;;;;;;6483672;31;8945;-59
2022/07/27 10:36:31;;;;;;;;;24.25;22.50;;;;;;;;6483945;31;8983;-58
2022/07/27 10:42:34;;;;;;;;;20.75;20.75;;;;;;;;6485618;31;9651;-58
2022/07/27 10:48:41;;;;;;;;;38.75;33.75;;;;;;;;6484485;31;8916;-58
2022/07/27 10:54:49;;;;;;;;;24.75;23.50;;;;;;;;6483794;31;8900;-59
2022/07/27 11:01:06;;;;;;;;;28.50;26.50;;;;;;;;6482115;31;9037;-60
2022/07/27 11:07:08;;;;;;;;;25.00;25.00;;;;;;;;6486638;46;8952;-58
2022/07/27 11:13:31;;;;;;;;;24.00;24.00;;;;;;;;6485424;31;8943;-59
2022/07/27 11:19:40;;;;;;;;;30.25;28.75;;;;;;;;6486985;39;9112;-57
2022/07/27 11:25:57;;;;;;;;;24.75;23.75;;;;;;;;6486141;39;8920;-58
2022/07/27 11:32:00;;;;;;;;;25.25;23.00;;;;;;;;6479024;31;9681;-57
2022/07/27 11:38:06;;;;;;;;;27.25;23.50;;;;;;;;6485203;39;9346;-58
2022/07/27 11:44:18;;;;;;;;;27.25;27.00;;;;;;;;6485300;39;8947;-57
2022/07/27 11:50:21;;;;;;;;;24.00;24.00;;;;;;;;6483184;36;8960;-58
2022/07/27 11:56:27;;;;;;;;;28.00;25.50;;;;;;;;6484934;31;8937;-58
